createdAt,value
2022-12-24T00:01:45.375Z,99907.81
2022-12-24T00:04:30.957Z,99910.44
2022-12-24T00:07:16.215Z,99914.81
2022-12-24T00:10:01.797Z,99907.13
2022-12-24T00:12:47.060Z,99901.06
2022-12-24T00:15:32.607Z,99899.34
2022-12-24T00:18:18.082Z,99902.81
2022-12-24T00:21:04.173Z,99914.91
2022-12-24T00:23:49.908Z,99913.19
2022-12-24T00:26:35.965Z,99916.59
2022-12-24T00:29:21.407Z,99920.06
2022-12-24T00:32:10.428Z,99910.56
2022-12-24T00:34:55.775Z,99910.56
2022-12-24T00:37:41.053Z,99897.66
2022-12-24T00:40:26.353Z,99903.72
2022-12-24T00:43:11.635Z,99905.47
2022-12-24T00:45:58.388Z,99908.91
2022-12-24T00:48:43.939Z,99908.06
2022-12-24T00:51:30.080Z,99915.00
2022-12-24T00:54:15.961Z,99912.41
2022-12-24T00:57:01.229Z,99915.84
2022-12-24T00:59:46.580Z,99916.66
2022-12-24T01:02:31.909Z,99914.09
2022-12-24T01:05:20.845Z,99921.00
2022-12-24T01:08:06.217Z,99908.91
2022-12-24T01:10:51.495Z,99915.81
2022-12-24T01:13:37.813Z,99927.00
2022-12-24T01:16:23.233Z,99911.50
2022-12-24T01:19:09.065Z,99923.56
2022-12-24T01:21:54.570Z,99914.91
2022-12-24T01:24:41.590Z,99920.94
2022-12-24T01:27:27.421Z,99915.75
2022-12-24T01:30:14.961Z,99922.66
2022-12-24T01:33:00.341Z,99932.16
2022-12-24T01:35:46.134Z,99930.44
2022-12-24T01:38:32.038Z,99920.09
2022-12-24T01:41:37.793Z,99917.47
2022-12-24T01:44:33.135Z,99923.47
2022-12-24T01:47:25.936Z,99920.88
2022-12-24T01:50:17.966Z,99937.25
2022-12-24T01:53:06.655Z,99939.81
2022-12-24T01:55:53.227Z,99940.69
2022-12-24T01:58:43.375Z,99941.56
2022-12-24T02:01:28.945Z,99945.88
2022-12-24T02:04:37.862Z,99949.25
2022-12-24T02:07:24.094Z,99954.41
2022-12-24T02:10:13.035Z,99960.41
2022-12-24T02:13:00.432Z,99965.59
2022-12-24T02:15:55.011Z,99963.00
2022-12-24T02:18:49.345Z,99969.91
2022-12-24T02:21:51.188Z,99969.88
2022-12-24T02:25:01.717Z,99962.97
2022-12-24T02:28:19.895Z,99962.06
2022-12-24T02:31:17.673Z,99970.69
2022-12-24T02:34:29.169Z,99969.78
2022-12-24T02:37:26.158Z,99962.84
2022-12-24T02:40:29.708Z,99965.38
2022-12-24T02:43:20.244Z,99967.94
2022-12-24T02:46:25.638Z,99981.69
2022-12-24T02:49:11.789Z,99976.41
2022-12-24T02:51:57.137Z,99988.50
2022-12-24T02:54:42.512Z,99979.94
2022-12-24T02:57:38.275Z,99980.00
2022-12-24T03:00:24.773Z,99972.31
2022-12-24T03:03:10.574Z,99973.19
2022-12-24T03:06:17.358Z,99965.47
2022-12-24T03:09:14.818Z,99964.59
2022-12-24T03:12:13.851Z,99958.56
2022-12-24T03:15:01.205Z,99966.25
2022-12-24T03:17:49.471Z,99961.06
2022-12-24T03:20:44.321Z,99961.88
2022-12-24T03:23:29.916Z,99962.81
2022-12-24T03:26:18.332Z,99973.16
2022-12-24T03:29:08.288Z,99967.97
2022-12-24T03:32:01.488Z,99968.75
2022-12-24T03:34:46.996Z,99973.94
2022-12-24T03:37:32.295Z,99970.53
2022-12-24T03:40:17.896Z,99974.00
2022-12-24T03:43:03.588Z,99989.59
2022-12-24T03:45:49.032Z,99981.03
2022-12-24T03:48:35.874Z,99978.44
2022-12-24T03:51:23.723Z,99973.19
2022-12-24T03:54:09.125Z,99974.91
2022-12-24T03:56:54.521Z,99964.56
2022-12-24T03:59:40.222Z,99970.69
2022-12-24T04:02:26.001Z,99968.13
2022-12-24T04:05:18.050Z,99974.25
2022-12-24T04:08:03.762Z,99964.78
2022-12-24T04:10:49.311Z,99973.44
2022-12-24T04:13:34.684Z,99970.03
2022-12-24T04:16:20.653Z,99984.66
2022-12-24T04:19:06.377Z,99979.47
2022-12-24T04:21:51.689Z,99973.47
2022-12-24T04:24:37.008Z,99968.31
2022-12-24T04:27:28.260Z,99973.50
2022-12-24T04:30:15.821Z,99976.13
2022-12-24T04:33:01.567Z,99974.38
2022-12-24T04:35:46.881Z,99976.03
2022-12-24T04:38:33.614Z,99983.00
2022-12-24T04:41:24.435Z,99981.31
2022-12-24T04:44:10.674Z,99977.94
2022-12-24T04:46:56.184Z,99971.03
2022-12-24T04:49:41.629Z,99976.22
2022-12-24T04:52:27.033Z,99971.91
2022-12-24T04:55:12.765Z,99970.16
2022-12-24T04:57:58.069Z,99970.19
2022-12-24T05:00:43.308Z,99965.03
2022-12-24T05:03:29.193Z,99977.13
2022-12-24T05:06:18.460Z,99973.59
2022-12-24T05:09:04.421Z,99966.66
2022-12-24T05:11:50.074Z,99975.22
2022-12-24T05:14:35.557Z,99967.47
2022-12-24T05:17:21.041Z,99979.59
2022-12-24T05:20:07.283Z,99989.94
2022-12-24T05:23:11.107Z,99990.78
2022-12-24T05:26:15.222Z,100001.97
2022-12-24T05:29:02.365Z,99994.19
2022-12-24T05:31:48.005Z,99996.66
2022-12-24T05:34:33.489Z,99989.69
2022-12-24T05:37:19.120Z,100000.13
2022-12-24T05:40:04.809Z,99988.91
2022-12-24T05:42:50.816Z,99995.78
2022-12-24T05:45:36.387Z,100000.91
2022-12-24T05:48:21.908Z,100007.72
2022-12-24T05:51:09.276Z,99995.69
2022-12-24T05:53:54.710Z,100005.22
2022-12-24T05:56:40.159Z,100008.63
2022-12-24T05:59:25.809Z,100009.63
2022-12-24T06:02:11.005Z,100027.78
2022-12-24T06:04:56.357Z,100024.25
2022-12-24T06:07:41.648Z,100038.84
2022-12-24T06:10:27.021Z,100041.31
2022-12-24T06:13:12.202Z,100042.94
2022-12-24T06:15:59.856Z,100042.03
2022-12-24T06:18:45.977Z,100049.78
2022-12-24T06:21:31.159Z,100048.91
2022-12-24T06:24:16.633Z,100037.63
2022-12-24T06:27:01.978Z,100032.41
2022-12-24T06:29:47.235Z,100033.19
2022-12-24T06:32:32.524Z,100028.78
2022-12-24T06:35:18.003Z,100033.78
2022-12-24T06:38:03.285Z,100013.00
2022-12-24T06:40:48.938Z,100012.84
2022-12-24T06:43:35.386Z,100016.19
2022-12-24T06:46:21.829Z,100012.56
2022-12-24T06:49:07.662Z,100012.47
2022-12-24T06:51:52.999Z,100021.00
2022-12-24T06:54:38.349Z,100021.78
2022-12-24T06:57:23.622Z,100021.00
2022-12-24T07:00:11.161Z,100027.72
2022-12-24T07:02:56.821Z,100020.72
2022-12-24T07:05:42.478Z,100020.66
2022-12-24T07:08:28.162Z,100015.34
2022-12-24T07:11:13.887Z,100023.88
2022-12-24T07:13:59.609Z,100025.63
2022-12-24T07:16:45.112Z,100014.44
2022-12-24T07:19:30.718Z,100013.78
2022-12-24T07:22:16.151Z,100005.13
2022-12-24T07:25:01.408Z,100007.63
2022-12-24T07:27:46.872Z,99998.97
2022-12-24T07:30:32.248Z,100003.19
2022-12-24T07:33:17.639Z,100004.09
2022-12-24T07:36:05.987Z,100000.56
2022-12-24T07:38:51.464Z,99995.41
2022-12-24T07:41:41.785Z,100006.44
2022-12-24T07:44:27.547Z,100006.53
2022-12-24T07:47:12.957Z,100006.66
2022-12-24T07:49:58.370Z,100000.75
2022-12-24T07:52:43.686Z,100001.72
2022-12-24T07:55:29.060Z,100013.16
2022-12-24T07:58:14.501Z,100031.41
2022-12-24T08:01:00.538Z,100047.97
2022-12-24T08:03:46.450Z,100045.53
2022-12-24T08:06:32.349Z,100047.41
2022-12-24T08:09:17.655Z,100047.66
2022-12-24T08:12:04.316Z,100041.66
2022-12-24T08:14:50.096Z,100037.47
2022-12-24T08:17:35.462Z,100024.59
2022-12-24T08:20:20.909Z,100027.16
2022-12-24T08:23:07.297Z,100028.06
2022-12-24T08:25:52.999Z,100031.63
2022-12-24T08:28:38.588Z,100029.88
2022-12-24T08:31:24.296Z,100036.84
2022-12-24T08:34:11.731Z,100041.22
2022-12-24T08:36:58.103Z,100045.53
2022-12-24T08:39:43.634Z,100053.44
2022-12-24T08:42:29.039Z,100050.00
2022-12-24T08:45:14.866Z,100054.28
2022-12-24T08:48:00.679Z,100056.84
2022-12-24T08:50:46.921Z,100071.47
2022-12-24T08:53:32.340Z,100061.22
2022-12-24T08:56:17.933Z,100070.88
2022-12-24T08:59:03.191Z,100058.91
2022-12-24T09:01:48.833Z,100053.88
2022-12-24T09:04:34.378Z,100055.72
2022-12-24T09:07:19.865Z,100059.25
2022-12-24T09:10:07.129Z,100045.47
2022-12-24T09:12:52.833Z,100038.59
2022-12-24T09:15:38.394Z,100023.88
2022-12-24T09:18:25.447Z,100019.53
2022-12-24T09:21:16.562Z,100019.53
2022-12-24T09:24:04.727Z,100011.00
2022-12-24T09:26:55.582Z,100008.44
2022-12-24T09:29:43.252Z,100005.00
2022-12-24T09:32:28.721Z,100007.63
2022-12-24T09:35:14.143Z,100001.59
2022-12-24T09:38:05.537Z,100000.78
2022-12-24T09:40:52.423Z,99990.41
2022-12-24T09:43:39.363Z,99985.25
2022-12-24T09:46:34.507Z,99985.25
2022-12-24T09:49:27.322Z,99971.41
2022-12-24T09:52:19.044Z,99972.31
2022-12-24T09:55:20.737Z,99969.69
2022-12-24T09:58:07.204Z,99965.34
2022-12-24T10:00:54.847Z,99961.91
2022-12-24T10:03:41.082Z,99958.44
2022-12-24T10:06:37.686Z,99963.63
2022-12-24T10:09:42.918Z,99958.41
2022-12-24T10:12:56.560Z,99968.78
2022-12-24T10:16:03.751Z,99967.03
2022-12-24T10:19:13.351Z,99973.97
2022-12-24T10:22:16.270Z,99970.47
2022-12-24T10:25:19.882Z,99968.75
2022-12-24T10:28:15.363Z,99961.81
2022-12-24T10:31:04.692Z,99960.94
2022-12-24T10:33:57.872Z,99960.91
2022-12-24T10:36:43.663Z,99954.78
2022-12-24T10:39:29.143Z,99949.53
2022-12-24T10:42:17.115Z,99954.66
2022-12-24T10:45:06.990Z,99960.63
2022-12-24T10:48:01.933Z,99954.50
2022-12-24T10:51:06.342Z,99959.66
2022-12-24T10:54:03.120Z,99958.66
2022-12-24T10:56:52.578Z,99959.41
2022-12-24T10:59:52.595Z,99957.50
2022-12-24T11:02:40.107Z,99948.66
2022-12-24T11:05:34.852Z,99946.78
2022-12-24T11:08:20.554Z,99929.22
2022-12-24T11:11:12.856Z,99936.06
2022-12-24T11:13:59.005Z,99935.84
2022-12-24T11:16:55.885Z,99934.84
2022-12-24T11:19:41.177Z,99926.09
2022-12-24T11:22:29.765Z,99932.94
2022-12-24T11:25:24.781Z,99914.63
2022-12-24T11:28:21.847Z,99916.38
2022-12-24T11:31:20.011Z,99910.34
2022-12-24T11:34:23.791Z,99906.91
2022-12-24T11:37:15.519Z,99898.34
2022-12-24T11:40:02.504Z,99893.19
2022-12-24T11:42:53.227Z,99896.72
2022-12-24T11:45:38.704Z,99889.00
2022-12-24T11:48:33.129Z,99894.31
2022-12-24T11:51:25.275Z,99888.31
2022-12-24T11:54:17.014Z,99895.31
2022-12-24T11:57:04.136Z,99886.75
2022-12-24T11:59:50.324Z,99882.50
2022-12-24T12:02:40.273Z,99881.72
2022-12-24T12:05:30.561Z,99887.00
2022-12-24T12:08:20.602Z,99881.84
2022-12-24T12:11:14.308Z,99887.13
2022-12-24T12:14:01.715Z,99886.31
2022-12-24T12:17:16.561Z,99871.63
2022-12-24T12:20:10.327Z,99870.78
2022-12-24T12:23:28.414Z,99878.59
2022-12-24T12:26:25.740Z,99879.47
2022-12-24T12:29:10.872Z,99878.59
2022-12-24T12:32:07.935Z,99871.69
2022-12-24T12:34:56.159Z,99872.63
2022-12-24T12:37:46.679Z,99863.09
2022-12-24T12:40:50.679Z,99865.75
2022-12-24T12:43:50.018Z,99858.88
2022-12-24T12:46:44.100Z,99865.81
2022-12-24T12:49:45.006Z,99872.81
2022-12-24T12:52:58.435Z,99865.91
2022-12-24T12:56:02.913Z,99871.16
2022-12-24T12:59:14.752Z,99871.16
2022-12-24T13:02:00.087Z,99870.31
2022-12-24T13:05:19.655Z,99870.38
2022-12-24T13:08:17.589Z,99881.69
2022-12-24T13:11:18.899Z,99906.78
2022-12-24T13:14:26.243Z,99935.41
2022-12-24T13:17:42.686Z,99921.81
2022-12-24T13:20:33.951Z,99923.81
2022-12-24T13:23:25.704Z,99917.84
2022-12-24T13:26:13.645Z,99908.31
2022-12-24T13:29:31.696Z,99927.31
2022-12-24T13:32:20.496Z,99908.28
2022-12-24T13:35:21.502Z,99898.78
2022-12-24T13:38:29.692Z,99904.84
2022-12-24T13:41:39.942Z,99897.94
2022-12-24T13:44:33.168Z,99871.16
2022-12-24T13:47:31.648Z,99866.84
2022-12-24T13:50:35.302Z,99871.16
2022-12-24T13:53:28.688Z,99875.47
2022-12-24T13:56:14.466Z,99870.28
2022-12-24T13:59:39.131Z,99850.44
2022-12-24T14:02:26.336Z,99855.63
2022-12-24T14:05:24.222Z,99865.09
2022-12-24T14:08:13.736Z,99859.06
2022-12-24T14:10:59.158Z,99858.22
2022-12-24T14:13:45.002Z,99851.28
2022-12-24T14:16:41.701Z,99851.28
2022-12-24T14:19:42.683Z,99846.97
2022-12-24T14:22:37.481Z,99838.34
2022-12-24T14:25:24.190Z,99842.66
2022-12-24T14:28:19.382Z,99837.47
2022-12-24T14:31:06.781Z,99846.97
2022-12-24T14:33:53.390Z,99847.84
2022-12-24T14:36:40.700Z,99851.28
2022-12-24T14:39:36.473Z,99849.56
2022-12-24T14:42:51.565Z,99829.69
2022-12-24T14:46:07.680Z,99857.34
2022-12-24T14:49:28.614Z,99856.47
2022-12-24T14:52:54.640Z,99840.94
2022-12-24T14:55:36.781Z,99834.00
2022-12-24T14:58:27.048Z,99825.38
2022-12-24T15:01:24.801Z,99822.78
2022-12-24T15:04:10.657Z,99809.81
2022-12-24T15:06:57.811Z,99802.03
2022-12-24T15:09:43.835Z,99796.84
2022-12-24T15:12:30.518Z,99796.00
2022-12-24T15:15:18.510Z,99790.81
2022-12-24T15:18:05.196Z,99784.78
2022-12-24T15:20:58.533Z,99770.09
2022-12-24T15:23:52.201Z,99762.31
2022-12-24T15:26:37.834Z,99773.53
2022-12-24T15:29:26.171Z,99793.41
2022-12-24T15:32:17.009Z,99790.81
2022-12-24T15:35:02.442Z,99770.94
2022-12-24T15:37:47.806Z,99749.38
2022-12-24T15:40:34.954Z,99747.66
2022-12-24T15:43:21.063Z,99748.50
2022-12-24T15:46:07.060Z,99788.25
2022-12-24T15:48:55.341Z,99832.28
2022-12-24T15:51:41.129Z,99818.44
2022-12-24T15:54:26.911Z,99798.56
2022-12-24T15:57:14.925Z,99802.84
2022-12-24T16:00:02.341Z,99822.72
2022-12-24T16:02:50.514Z,99812.34
2022-12-24T16:05:37.797Z,99768.34
2022-12-24T16:08:24.666Z,99773.50
2022-12-24T16:11:18.921Z,99732.94
2022-12-24T16:14:11.355Z,99712.22
2022-12-24T16:16:58.555Z,99710.50
2022-12-24T16:19:49.090Z,99719.16
2022-12-24T16:22:39.793Z,99722.59
2022-12-24T16:25:27.769Z,99705.31
2022-12-24T16:28:20.269Z,99719.16
2022-12-24T16:31:07.851Z,99698.44
2022-12-24T16:33:55.816Z,99695.84
2022-12-24T16:36:45.293Z,99711.38
2022-12-24T16:39:33.404Z,99718.25
2022-12-24T16:42:37.778Z,99701.88
2022-12-24T16:45:23.343Z,99682.91
2022-12-24T16:48:09.108Z,99680.31
2022-12-24T16:50:54.662Z,99677.69
2022-12-24T16:53:40.273Z,99691.53
2022-12-24T16:56:25.593Z,99690.66
2022-12-24T16:59:17.622Z,99696.69
2022-12-24T17:02:03.344Z,99711.34
2022-12-24T17:04:50.196Z,99710.47
2022-12-24T17:07:39.697Z,99708.78
2022-12-24T17:10:28.887Z,99703.59
2022-12-24T17:13:14.530Z,99708.78
2022-12-24T17:16:02.418Z,99698.41
2022-12-24T17:18:49.196Z,99705.34
2022-12-24T17:21:35.110Z,99707.94
2022-12-24T17:24:20.810Z,99720.00
2022-12-24T17:27:06.090Z,99726.06
2022-12-24T17:29:51.865Z,99728.63
2022-12-24T17:32:37.623Z,99709.66
2022-12-24T17:35:23.148Z,99707.91
2022-12-24T17:38:09.174Z,99688.94
2022-12-24T17:41:11.890Z,99677.69
2022-12-24T17:43:58.972Z,99675.97
2022-12-24T17:46:44.669Z,99678.59
2022-12-24T17:49:29.915Z,99685.47
2022-12-24T17:52:15.324Z,99683.75
2022-12-24T17:55:00.771Z,99667.34
2022-12-24T17:57:46.266Z,99651.81
2022-12-24T18:00:33.474Z,99670.81
2022-12-24T18:03:19.133Z,99678.56
2022-12-24T18:06:06.837Z,99674.25
2022-12-24T18:08:52.836Z,99689.75
2022-12-24T18:11:38.401Z,99687.16
2022-12-24T18:14:23.972Z,99675.91
2022-12-24T18:17:09.696Z,99666.41
2022-12-24T18:19:54.973Z,99670.69
2022-12-24T18:22:40.490Z,99669.00
2022-12-24T18:25:25.850Z,99680.19
2022-12-24T18:28:11.465Z,99690.53
2022-12-24T18:31:01.919Z,99695.69
2022-12-24T18:33:49.176Z,99699.97
2022-12-24T18:36:35.602Z,99706.03
2022-12-24T18:39:21.127Z,99708.63
2022-12-24T18:42:06.424Z,99702.53
2022-12-24T18:44:51.923Z,99715.44
2022-12-24T18:47:37.352Z,99722.28
2022-12-24T18:50:22.605Z,99731.75
2022-12-24T18:53:08.246Z,99718.84
2022-12-24T18:55:53.826Z,99730.06
2022-12-24T18:58:41.206Z,99730.09
2022-12-24T19:01:30.438Z,99734.41
2022-12-24T19:04:15.885Z,99736.16
2022-12-24T19:07:01.598Z,99739.66
2022-12-24T19:09:48.497Z,99737.91
2022-12-24T19:12:34.314Z,99749.16
2022-12-24T19:15:19.890Z,99747.47
2022-12-24T19:18:05.384Z,99739.66
2022-12-24T19:20:50.640Z,99737.13
2022-12-24T19:23:36.783Z,99729.34
2022-12-24T19:26:22.483Z,99726.72
2022-12-24T19:29:08.015Z,99726.72
2022-12-24T19:31:53.641Z,99725.88
2022-12-24T19:34:38.679Z,99725.88
2022-12-24T19:37:24.161Z,99721.47
2022-12-24T19:40:10.281Z,99718.84
2022-12-24T19:42:56.071Z,99711.03
2022-12-24T19:45:41.736Z,99706.69
2022-12-24T19:48:26.852Z,99714.41
2022-12-24T19:51:12.608Z,99710.91
2022-12-24T19:53:59.948Z,99700.53
2022-12-24T19:56:45.200Z,99714.25
2022-12-24T19:59:30.699Z,99704.91
2022-12-24T20:02:16.239Z,99718.75
2022-12-24T20:05:02.433Z,99727.53
2022-12-24T20:07:48.089Z,99728.41
2022-12-24T20:10:41.895Z,99745.66
2022-12-24T20:13:27.159Z,99739.63
2022-12-24T20:16:19.431Z,99749.97
2022-12-24T20:19:06.842Z,99753.38
2022-12-24T20:21:52.218Z,99761.16
2022-12-24T20:24:37.720Z,99762.91
2022-12-24T20:27:25.590Z,99759.50
2022-12-24T20:30:11.219Z,99762.06
2022-12-24T20:32:57.847Z,99761.16
2022-12-24T20:35:43.193Z,99771.50
2022-12-24T20:38:28.690Z,99760.25
2022-12-24T20:41:16.619Z,99752.47
2022-12-24T20:44:02.379Z,99754.19
2022-12-24T20:46:47.688Z,99768.88
2022-12-24T20:49:33.028Z,99771.47
2022-12-24T20:52:18.340Z,99773.25
2022-12-24T20:55:04.112Z,99763.72
2022-12-24T20:57:50.495Z,99762.84
2022-12-24T21:00:35.785Z,99765.44
2022-12-24T21:03:21.314Z,99774.09
2022-12-24T21:06:07.556Z,99766.28
2022-12-24T21:08:53.950Z,99778.31
2022-12-24T21:11:51.521Z,99769.75
2022-12-24T21:14:37.433Z,99768.91
2022-12-24T21:17:23.282Z,99781.84
2022-12-24T21:20:09.042Z,99780.94
2022-12-24T21:23:00.440Z,99786.09
2022-12-24T21:25:56.687Z,99782.63
2022-12-24T21:28:43.960Z,99776.66
2022-12-24T21:31:29.559Z,99775.75
2022-12-24T21:34:15.255Z,99777.47
2022-12-24T21:37:00.395Z,99767.09
2022-12-24T21:39:45.750Z,99766.19
2022-12-24T21:42:36.036Z,99765.28
2022-12-24T21:45:21.374Z,99763.44
2022-12-24T21:48:26.793Z,99754.78
2022-12-24T21:51:13.280Z,99760.72
2022-12-24T21:54:17.684Z,99767.53
2022-12-24T21:57:23.917Z,99764.25
2022-12-24T22:00:22.882Z,99762.56
2022-12-24T22:03:08.286Z,99755.69
2022-12-24T22:05:53.969Z,99753.13
2022-12-24T22:08:57.683Z,99754.84
2022-12-24T22:11:54.270Z,99758.31
2022-12-24T22:14:40.304Z,99760.88
2022-12-24T22:17:27.157Z,99758.31
2022-12-24T22:20:12.777Z,99751.41
2022-12-24T22:22:58.100Z,99766.94
2022-12-24T22:25:47.380Z,99760.09
2022-12-24T22:28:32.908Z,99760.91
2022-12-24T22:31:23.337Z,99771.25
2022-12-24T22:34:09.100Z,99779.00
2022-12-24T22:36:54.452Z,99779.84
2022-12-24T22:39:40.043Z,99785.00
2022-12-24T22:42:25.352Z,99793.66
2022-12-24T22:45:15.777Z,99787.69
2022-12-24T22:48:04.423Z,99774.00
2022-12-24T22:50:50.047Z,99769.78
2022-12-24T22:53:36.482Z,99768.09
2022-12-24T22:56:23.276Z,99774.16
2022-12-24T22:59:12.458Z,99773.28
2022-12-24T23:01:58.290Z,99780.16
2022-12-24T23:04:44.310Z,99772.41
2022-12-24T23:07:29.841Z,99764.66
2022-12-24T23:10:15.070Z,99771.59
2022-12-24T23:13:20.055Z,99765.59
2022-12-24T23:16:07.110Z,99760.34
2022-12-24T23:18:53.588Z,99765.50
2022-12-24T23:21:39.304Z,99758.59
2022-12-24T23:24:24.849Z,99756.91
2022-12-24T23:27:10.305Z,99770.66
2022-12-24T23:29:55.847Z,99758.56
2022-12-24T23:32:41.630Z,99761.97
2022-12-24T23:35:27.013Z,99749.91
2022-12-24T23:38:12.386Z,99758.53
2022-12-24T23:41:00.265Z,99768.00
2022-12-24T23:43:47.201Z,99774.03
2022-12-24T23:46:32.737Z,99774.94
2022-12-24T23:49:17.949Z,99779.28
2022-12-24T23:52:04.300Z,99775.03
2022-12-24T23:54:49.638Z,99767.34
2022-12-24T23:57:35.035Z,99763.91
